createdAt,value
2022-09-28T00:01:15.662Z,9.43
2022-09-28T00:03:43.143Z,8.47
2022-09-28T00:06:12.833Z,9.40
2022-09-28T00:08:39.564Z,8.65
2022-09-28T00:11:08.064Z,9.20
2022-09-28T00:13:35.276Z,8.57
2022-09-28T00:16:12.520Z,8.05
2022-09-28T00:18:39.122Z,7.10
2022-09-28T00:21:08.833Z,6.85
2022-09-28T00:23:57.756Z,6.72
2022-09-28T00:26:24.562Z,6.30
2022-09-28T00:28:55.554Z,6.22
2022-09-28T00:31:23.055Z,6.05
2022-09-28T00:33:53.105Z,5.78
2022-09-28T00:36:19.743Z,5.82
2022-09-28T00:38:46.516Z,5.43
2022-09-28T00:41:13.163Z,6.22
2022-09-28T00:43:39.884Z,5.28
2022-09-28T00:46:34.015Z,4.75
2022-09-28T00:49:09.338Z,5.55
2022-09-28T00:51:38.862Z,4.35
2022-09-28T00:54:07.495Z,4.53
2022-09-28T00:56:36.356Z,4.03
2022-09-28T00:59:04.781Z,4.25
2022-09-28T01:01:31.594Z,3.80
2022-09-28T01:03:59.377Z,4.00
2022-09-28T01:06:31.164Z,3.67
2022-09-28T01:09:00.412Z,3.00
2022-09-28T01:11:27.806Z,3.17
2022-09-28T01:13:57.620Z,3.30
2022-09-28T01:16:32.480Z,2.92
2022-09-28T01:19:28.850Z,2.72
2022-09-28T01:22:17.981Z,4.13
2022-09-28T01:24:51.810Z,2.90
2022-09-28T01:27:40.519Z,2.90
2022-09-28T01:30:09.977Z,2.90
2022-09-28T01:32:56.279Z,3.20
2022-09-28T01:35:44.566Z,2.83
2022-09-28T01:38:34.483Z,2.80
2022-09-28T01:41:01.824Z,2.78
2022-09-28T01:43:30.596Z,2.80
2022-09-28T01:46:00.133Z,3.17
2022-09-28T01:48:35.754Z,3.25
2022-09-28T01:51:08.256Z,3.30
2022-09-28T01:53:47.784Z,3.10
2022-09-28T01:56:50.206Z,2.97
2022-09-28T01:59:21.703Z,2.80
2022-09-28T02:02:09.897Z,2.88
2022-09-28T02:04:47.769Z,2.55
2022-09-28T02:07:20.631Z,3.45
2022-09-28T02:09:55.357Z,3.72
2022-09-28T02:12:33.146Z,3.35
2022-09-28T02:15:12.628Z,3.22
2022-09-28T02:17:39.544Z,2.95
2022-09-28T02:20:07.551Z,3.03
2022-09-28T02:22:43.295Z,3.10
2022-09-28T02:25:36.984Z,2.78
2022-09-28T02:28:09.963Z,2.80
2022-09-28T02:30:39.202Z,3.22
2022-09-28T02:33:22.689Z,3.33
2022-09-28T02:35:49.331Z,3.28
2022-09-28T02:38:15.942Z,3.15
2022-09-28T02:40:48.840Z,3.42
2022-09-28T02:43:44.693Z,3.25
2022-09-28T02:46:16.950Z,2.63
2022-09-28T02:48:55.841Z,3.63
2022-09-28T02:51:46.485Z,3.55
2022-09-28T02:54:33.451Z,3.85
2022-09-28T02:57:48.521Z,3.15
2022-09-28T03:00:19.591Z,3.25
2022-09-28T03:03:24.166Z,3.53
2022-09-28T03:06:20.284Z,3.58
2022-09-28T03:09:11.377Z,3.85
2022-09-28T03:11:47.112Z,3.45
2022-09-28T03:14:14.746Z,3.53
2022-09-28T03:16:45.260Z,3.75
2022-09-28T03:19:13.046Z,3.83
2022-09-28T03:21:39.743Z,3.95
2022-09-28T03:24:06.623Z,3.60
2022-09-28T03:26:33.594Z,3.88
2022-09-28T03:29:00.291Z,4.43
2022-09-28T03:31:27.287Z,4.05
2022-09-28T03:33:54.073Z,3.95
2022-09-28T03:36:20.894Z,4.03
2022-09-28T03:38:47.694Z,4.35
2022-09-28T03:41:14.507Z,4.07
2022-09-28T03:43:41.100Z,4.35
2022-09-28T03:46:07.985Z,4.28
2022-09-28T03:48:36.251Z,4.57
2022-09-28T03:51:06.995Z,4.40
2022-09-28T03:53:33.936Z,4.40
2022-09-28T03:56:27.222Z,4.57
2022-09-28T03:58:54.137Z,4.20
2022-09-28T04:01:21.092Z,3.38
2022-09-28T04:03:52.971Z,3.50
2022-09-28T04:06:19.664Z,3.58
2022-09-28T04:08:46.199Z,4.30
2022-09-28T04:11:13.263Z,3.92
2022-09-28T04:13:39.915Z,4.05
2022-09-28T04:16:06.791Z,4.82
2022-09-28T04:18:34.021Z,4.25
2022-09-28T04:21:03.697Z,4.55
2022-09-28T04:23:30.310Z,4.32
2022-09-28T04:25:57.183Z,4.97
2022-09-28T04:28:42.714Z,5.35
2022-09-28T04:31:12.493Z,5.00
2022-09-28T04:33:39.283Z,5.40
2022-09-28T04:36:06.191Z,5.03
2022-09-28T04:38:51.692Z,5.43
2022-09-28T04:41:18.887Z,4.95
2022-09-28T04:43:48.814Z,5.28
2022-09-28T04:46:15.744Z,5.75
2022-09-28T04:48:42.478Z,5.57
2022-09-28T04:51:09.095Z,5.43
2022-09-28T04:53:35.771Z,5.68
2022-09-28T04:56:05.480Z,5.75
2022-09-28T04:58:34.383Z,6.50
2022-09-28T05:01:06.905Z,6.20
2022-09-28T05:03:34.421Z,6.35
2022-09-28T05:06:01.762Z,5.65
2022-09-28T05:08:28.641Z,6.25
2022-09-28T05:11:10.671Z,6.95
2022-09-28T05:13:42.696Z,6.68
2022-09-28T05:16:10.364Z,6.57
2022-09-28T05:18:37.076Z,6.65
2022-09-28T05:21:04.982Z,7.30
2022-09-28T05:23:32.783Z,6.75
2022-09-28T05:26:02.187Z,7.13
2022-09-28T05:28:30.939Z,7.15
2022-09-28T05:31:05.195Z,6.55
2022-09-28T05:33:32.928Z,6.47
2022-09-28T05:36:01.677Z,6.70
2022-09-28T05:38:29.884Z,5.85
2022-09-28T05:40:57.073Z,6.13
2022-09-28T05:43:23.806Z,6.53
2022-09-28T05:45:55.318Z,6.15
2022-09-28T05:48:22.922Z,6.80
2022-09-28T05:50:53.498Z,6.88
2022-09-28T05:53:20.453Z,6.78
2022-09-28T05:55:47.787Z,6.43
2022-09-28T05:58:14.752Z,6.45
2022-09-28T06:00:41.341Z,5.85
2022-09-28T06:03:11.748Z,6.15
2022-09-28T06:05:42.135Z,5.93
2022-09-28T06:08:10.779Z,6.03
2022-09-28T06:10:37.771Z,6.20
2022-09-28T06:13:05.145Z,5.97
2022-09-28T06:15:33.763Z,5.68
2022-09-28T06:18:01.360Z,5.93
2022-09-28T06:20:30.159Z,5.40
2022-09-28T06:22:56.878Z,5.50
2022-09-28T06:25:24.527Z,5.60
2022-09-28T06:28:00.236Z,5.75
2022-09-28T06:30:28.971Z,5.43
2022-09-28T06:32:59.052Z,5.30
2022-09-28T06:35:28.493Z,5.60
2022-09-28T06:37:55.157Z,4.90
2022-09-28T06:40:22.664Z,4.97
2022-09-28T06:42:57.105Z,4.88
2022-09-28T06:45:25.553Z,5.00
2022-09-28T06:47:57.617Z,5.50
2022-09-28T06:50:28.423Z,5.50
2022-09-28T06:52:55.515Z,5.00
2022-09-28T06:55:22.510Z,5.80
2022-09-28T06:57:58.702Z,5.72
2022-09-28T07:00:31.397Z,5.55
2022-09-28T07:02:57.955Z,5.35
2022-09-28T07:05:27.434Z,5.30
2022-09-28T07:07:58.234Z,5.45
2022-09-28T07:10:27.935Z,5.63
2022-09-28T07:12:55.954Z,6.78
2022-09-28T07:15:23.638Z,5.43
2022-09-28T07:18:00.396Z,5.85
2022-09-28T07:20:29.403Z,5.32
2022-09-28T07:23:00.371Z,6.18
2022-09-28T07:25:32.518Z,5.55
2022-09-28T07:28:00.150Z,7.00
2022-09-28T07:30:29.022Z,7.97
2022-09-28T07:32:56.217Z,6.90
2022-09-28T07:35:22.818Z,5.50
2022-09-28T07:37:49.561Z,6.95
2022-09-28T07:40:35.906Z,6.00
2022-09-28T07:43:07.241Z,5.20
2022-09-28T07:45:38.971Z,5.40
2022-09-28T07:48:05.712Z,5.72
2022-09-28T07:50:32.621Z,6.90
2022-09-28T07:53:00.748Z,5.75
2022-09-28T07:55:27.358Z,8.57
2022-09-28T07:57:56.305Z,6.10
2022-09-28T08:00:23.323Z,6.05
2022-09-28T08:02:49.938Z,7.22
2022-09-28T08:05:16.655Z,7.13
2022-09-28T08:07:44.309Z,12.73
2022-09-28T08:10:11.393Z,11.60
2022-09-28T08:12:40.697Z,10.25
2022-09-28T08:15:10.558Z,7.60
2022-09-28T08:17:37.859Z,8.30
2022-09-28T08:20:23.702Z,5.85
2022-09-28T08:22:50.770Z,11.07
2022-09-28T08:25:17.325Z,4.93
2022-09-28T08:27:44.133Z,8.48
2022-09-28T08:30:11.314Z,13.13
2022-09-28T08:32:37.924Z,17.23
2022-09-28T08:35:05.038Z,13.68
2022-09-28T08:37:31.880Z,10.05
2022-09-28T08:39:58.483Z,11.20
2022-09-28T08:42:39.405Z,8.18
2022-09-28T08:45:09.301Z,7.53
2022-09-28T08:48:09.557Z,9.88
2022-09-28T08:50:46.005Z,11.88
2022-09-28T08:53:21.298Z,16.20
2022-09-28T08:55:49.118Z,13.27
2022-09-28T08:58:24.391Z,5.40
2022-09-28T09:00:52.982Z,3.75
2022-09-28T09:03:39.485Z,8.88
2022-09-28T09:06:34.393Z,11.95
2022-09-28T09:09:04.112Z,7.18
2022-09-28T09:11:44.507Z,5.78
2022-09-28T09:14:28.335Z,5.25
2022-09-28T09:17:35.521Z,3.30
2022-09-28T09:20:14.154Z,5.05
2022-09-28T09:22:51.707Z,5.13
2022-09-28T09:25:22.314Z,3.53
2022-09-28T09:28:07.657Z,5.97
2022-09-28T09:30:59.509Z,6.55
2022-09-28T09:33:40.001Z,6.47
2022-09-28T09:36:22.056Z,5.25
2022-09-28T09:39:14.547Z,4.72
2022-09-28T09:42:32.450Z,9.00
2022-09-28T09:45:14.157Z,9.05
2022-09-28T09:47:45.591Z,10.95
2022-09-28T09:50:30.209Z,12.77
2022-09-28T09:53:10.252Z,3.95
2022-09-28T09:55:40.741Z,10.13
2022-09-28T09:58:18.488Z,8.50
2022-09-28T10:00:48.261Z,11.13
2022-09-28T10:03:24.431Z,14.63
2022-09-28T10:06:17.053Z,10.65
2022-09-28T10:08:50.520Z,14.00
2022-09-28T10:11:31.665Z,10.43
2022-09-28T10:13:59.862Z,10.82
2022-09-28T10:16:26.877Z,9.15
2022-09-28T10:18:53.500Z,13.15
2022-09-28T10:21:23.265Z,11.15
2022-09-28T10:23:58.565Z,10.82
2022-09-28T10:26:32.913Z,8.32
2022-09-28T10:29:01.636Z,10.25
2022-09-28T10:31:41.269Z,8.10
2022-09-28T10:34:10.673Z,12.48
2022-09-28T10:36:50.245Z,8.93
2022-09-28T10:39:43.156Z,8.35
2022-09-28T10:42:12.748Z,7.85
2022-09-28T10:44:59.270Z,13.10
2022-09-28T10:47:30.833Z,10.20
2022-09-28T10:49:58.599Z,8.73
2022-09-28T10:52:34.688Z,8.98
2022-09-28T10:55:02.369Z,15.07
2022-09-28T10:57:35.021Z,13.13
2022-09-28T11:00:02.991Z,9.73
2022-09-28T11:02:36.560Z,10.68
2022-09-28T11:05:06.493Z,10.98
2022-09-28T11:07:43.962Z,10.77
2022-09-28T11:10:21.060Z,8.40
2022-09-28T11:12:49.728Z,6.38
2022-09-28T11:15:34.607Z,8.95
2022-09-28T11:18:25.888Z,10.60
2022-09-28T11:20:52.479Z,11.50
2022-09-28T11:23:26.897Z,15.18
2022-09-28T11:26:17.631Z,10.25
2022-09-28T11:28:51.765Z,8.88
2022-09-28T11:31:26.179Z,9.50
2022-09-28T11:34:04.362Z,9.43
2022-09-28T11:37:13.970Z,11.02
2022-09-28T11:40:01.233Z,8.73
2022-09-28T11:43:06.863Z,6.43
2022-09-28T11:45:45.988Z,7.93
2022-09-28T11:48:17.705Z,10.35
2022-09-28T11:51:11.562Z,11.00
2022-09-28T11:53:53.670Z,14.23
2022-09-28T11:56:32.637Z,10.93
2022-09-28T11:59:23.993Z,19.23
2022-09-28T12:01:57.895Z,17.02
2022-09-28T12:04:39.891Z,12.20
2022-09-28T12:07:21.984Z,15.43
2022-09-28T12:10:03.402Z,12.10
2022-09-28T12:12:43.769Z,11.20
2022-09-28T12:16:12.933Z,10.30
2022-09-28T12:18:39.018Z,6.90
2022-09-28T12:21:15.892Z,13.18
2022-09-28T12:23:45.040Z,13.05
2022-09-28T12:26:37.261Z,11.77
2022-09-28T12:29:23.386Z,15.00
2022-09-28T12:32:15.962Z,15.77
2022-09-28T12:34:44.332Z,13.75
2022-09-28T12:37:26.243Z,9.80
2022-09-28T12:39:59.805Z,13.23
2022-09-28T12:42:44.339Z,14.55
2022-09-28T12:46:07.037Z,8.70
2022-09-28T12:49:04.132Z,11.55
2022-09-28T12:51:54.203Z,6.50
2022-09-28T12:54:44.610Z,11.80
2022-09-28T12:57:48.312Z,8.18
2022-09-28T13:00:25.363Z,11.63
2022-09-28T13:03:31.263Z,11.35
2022-09-28T13:06:57.830Z,7.80
2022-09-28T13:09:57.251Z,7.35
2022-09-28T13:12:56.736Z,10.02
2022-09-28T13:15:41.876Z,8.35
2022-09-28T13:18:36.394Z,6.10
2022-09-28T13:21:16.824Z,5.00
2022-09-28T13:23:50.387Z,4.57
2022-09-28T13:26:31.810Z,5.47
2022-09-28T13:29:06.162Z,3.67
2022-09-28T13:31:37.173Z,5.80
2022-09-28T13:34:20.564Z,6.53
2022-09-28T13:37:22.197Z,4.18
2022-09-28T13:39:53.126Z,5.75
2022-09-28T13:42:52.061Z,3.95
2022-09-28T13:45:21.352Z,4.50
2022-09-28T13:48:00.481Z,5.28
2022-09-28T13:50:41.592Z,4.55
2022-09-28T13:53:43.503Z,4.78
2022-09-28T13:56:16.018Z,5.68
2022-09-28T13:58:51.878Z,6.65
2022-09-28T14:01:42.825Z,4.65
2022-09-28T14:04:22.010Z,6.28
2022-09-28T14:06:58.011Z,5.38
2022-09-28T14:09:46.918Z,5.32
2022-09-28T14:12:45.318Z,5.20
2022-09-28T14:15:30.052Z,4.90
2022-09-28T14:18:10.214Z,5.90
2022-09-28T14:20:37.538Z,5.85
2022-09-28T14:23:26.998Z,7.43
2022-09-28T14:26:11.720Z,9.68
2022-09-28T14:29:16.434Z,4.75
2022-09-28T14:31:44.669Z,4.40
2022-09-28T14:35:04.778Z,8.63
2022-09-28T14:37:59.361Z,4.10
2022-09-28T14:41:10.306Z,7.43
2022-09-28T14:43:46.290Z,6.28
2022-09-28T14:46:17.413Z,7.10
2022-09-28T14:48:52.801Z,15.05
2022-09-28T14:51:26.248Z,17.88
2022-09-28T14:54:00.397Z,23.88
2022-09-28T14:59:00.484Z,7.68
2022-09-28T15:01:27.963Z,8.68
2022-09-28T15:03:59.075Z,14.13
2022-09-28T15:06:29.023Z,12.98
2022-09-28T15:08:55.620Z,12.80
2022-09-28T15:11:25.361Z,12.32
2022-09-28T15:14:06.656Z,7.93
2022-09-28T15:16:33.691Z,10.25
2022-09-28T15:19:17.503Z,14.25
2022-09-28T15:21:47.622Z,10.15
2022-09-28T15:24:28.740Z,12.52
2022-09-28T15:26:56.887Z,14.27
2022-09-28T15:29:24.156Z,15.73
2022-09-28T15:31:54.298Z,16.98
2022-09-28T15:34:52.702Z,16.38
2022-09-28T15:37:23.957Z,16.80
2022-09-28T15:39:52.180Z,18.13
2022-09-28T15:42:19.503Z,15.85
2022-09-28T15:45:03.401Z,15.00
2022-09-28T15:47:32.023Z,15.50
2022-09-28T15:50:09.238Z,14.48
2022-09-28T15:52:44.699Z,12.57
2022-09-28T15:55:20.581Z,11.45
2022-09-28T15:57:47.493Z,13.02
2022-09-28T16:00:30.243Z,14.07
2022-09-28T16:03:09.377Z,15.50
2022-09-28T16:05:50.922Z,10.52
2022-09-28T16:08:25.129Z,9.27
2022-09-28T16:14:06.349Z,4.20
2022-09-28T16:16:46.503Z,5.50
2022-09-28T16:19:26.372Z,6.78
2022-09-28T16:21:55.881Z,6.57
2022-09-28T16:24:32.347Z,6.45
2022-09-28T16:27:27.544Z,5.68
2022-09-28T16:30:16.474Z,5.57
2022-09-28T16:32:52.400Z,6.95
2022-09-28T16:35:28.731Z,4.90
2022-09-28T16:38:04.435Z,6.43
2022-09-28T16:40:32.644Z,5.90
2022-09-28T16:43:03.338Z,8.13
2022-09-28T16:45:30.150Z,7.75
2022-09-28T16:47:57.813Z,9.82
2022-09-28T16:50:25.555Z,8.13
2022-09-28T16:53:19.585Z,8.77
2022-09-28T16:55:50.305Z,6.13
2022-09-28T16:58:17.027Z,8.30
2022-09-28T17:00:43.721Z,6.68
2022-09-28T17:03:15.471Z,6.55
2022-09-28T17:05:42.512Z,5.68
2022-09-28T17:08:17.206Z,6.10
2022-09-28T17:13:41.949Z,5.05
2022-09-28T17:16:18.565Z,5.25
2022-09-28T17:18:46.378Z,4.68
2022-09-28T17:21:16.383Z,10.93
2022-09-28T17:23:43.931Z,10.82
2022-09-28T17:26:22.960Z,8.85
2022-09-28T17:28:53.119Z,9.88
2022-09-28T17:31:23.104Z,9.85
2022-09-28T17:33:53.200Z,6.18
2022-09-28T17:36:23.697Z,4.65
2022-09-28T17:38:53.602Z,8.45
2022-09-28T17:41:23.725Z,5.70
2022-09-28T17:43:55.907Z,6.20
2022-09-28T17:46:29.920Z,6.30
2022-09-28T17:49:04.244Z,7.28
2022-09-28T17:51:37.619Z,4.90
2022-09-28T17:54:08.196Z,5.50
2022-09-28T17:56:36.552Z,7.55
2022-09-28T17:59:08.434Z,4.30
2022-09-28T18:01:39.701Z,5.40
2022-09-28T18:04:08.930Z,5.60
2022-09-28T18:06:45.407Z,5.80
2022-09-28T18:09:25.540Z,5.25
2022-09-28T18:12:01.118Z,5.07
2022-09-28T18:14:28.587Z,7.20
2022-09-28T18:16:58.135Z,7.38
2022-09-28T18:19:31.673Z,18.02
2022-09-28T18:21:59.357Z,12.80
2022-09-28T18:24:29.066Z,25.00
2022-09-28T18:26:58.806Z,15.75
2022-09-28T18:29:29.907Z,15.35
2022-09-28T18:31:59.273Z,15.13
2022-09-28T18:34:29.493Z,16.30
2022-09-28T18:36:57.371Z,13.48
2022-09-28T18:39:26.973Z,13.90
2022-09-28T18:41:57.772Z,12.65
2022-09-28T18:44:28.585Z,10.88
2022-09-28T18:47:02.389Z,9.52
2022-09-28T18:49:33.650Z,10.80
2022-09-28T18:52:01.289Z,9.77
2022-09-28T18:54:29.763Z,9.00
2022-09-28T18:57:00.307Z,7.68
2022-09-28T18:59:31.069Z,7.55
2022-09-28T19:02:01.726Z,6.10
2022-09-28T19:04:31.339Z,5.72
2022-09-28T19:07:01.105Z,6.15
2022-09-28T19:09:31.962Z,5.45
2022-09-28T19:12:02.588Z,5.13
2022-09-28T19:14:32.086Z,4.45
2022-09-28T19:17:04.425Z,4.22
2022-09-28T19:19:33.225Z,4.43
2022-09-28T19:22:04.778Z,3.95
2022-09-28T19:24:35.901Z,4.18
2022-09-28T19:27:04.510Z,4.10
2022-09-28T19:29:34.954Z,4.07
2022-09-28T19:32:07.087Z,4.20
2022-09-28T19:34:33.621Z,4.13
2022-09-28T19:37:03.845Z,4.45
2022-09-28T19:39:31.300Z,4.05
2022-09-28T19:41:59.756Z,4.53
2022-09-28T19:44:28.192Z,4.30
2022-09-28T19:47:00.862Z,4.00
2022-09-28T19:49:27.986Z,4.28
2022-09-28T19:54:56.905Z,3.58
2022-09-28T19:57:28.884Z,3.83
2022-09-28T20:00:01.754Z,3.42
2022-09-28T20:02:29.436Z,3.60
2022-09-28T20:04:56.129Z,3.60
2022-09-28T20:07:23.108Z,3.88
2022-09-28T20:09:52.162Z,4.78
2022-09-28T20:12:18.922Z,4.40
2022-09-28T20:14:45.624Z,4.00
2022-09-28T20:17:13.135Z,3.88
2022-09-28T20:19:39.698Z,3.33
2022-09-28T20:22:06.648Z,4.10
2022-09-28T20:24:33.783Z,3.95
2022-09-28T20:27:01.561Z,3.55
2022-09-28T20:29:28.831Z,4.18
2022-09-28T20:31:56.799Z,3.80
2022-09-28T20:34:23.424Z,3.65
2022-09-28T20:36:50.093Z,3.47
2022-09-28T20:39:16.988Z,4.30
2022-09-28T20:41:43.720Z,4.20
2022-09-28T20:44:10.402Z,3.60
2022-09-28T20:46:37.577Z,3.88
2022-09-28T20:49:05.269Z,3.60
2022-09-28T20:51:32.254Z,3.50
2022-09-28T20:53:59.459Z,3.58
2022-09-28T20:56:28.997Z,3.85
2022-09-28T20:58:56.949Z,3.67
2022-09-28T21:01:28.786Z,2.88
2022-09-28T21:04:00.410Z,4.07
2022-09-28T21:06:29.585Z,3.00
2022-09-28T21:08:56.498Z,3.83
2022-09-28T21:11:25.226Z,3.15
2022-09-28T21:13:53.681Z,3.40
2022-09-28T21:16:20.946Z,3.10
2022-09-28T21:18:47.761Z,3.17
2022-09-28T21:21:16.984Z,3.22
2022-09-28T21:23:47.036Z,3.08
2022-09-28T21:26:25.164Z,3.08
2022-09-28T21:28:59.703Z,3.42
2022-09-28T21:31:29.676Z,3.65
2022-09-28T21:33:57.740Z,2.85
2022-09-28T21:36:24.785Z,3.05
2022-09-28T21:38:51.497Z,2.80
2022-09-28T21:41:18.070Z,3.25
2022-09-28T21:43:45.842Z,2.85
2022-09-28T21:46:13.197Z,3.35
2022-09-28T21:48:39.819Z,3.25
2022-09-28T21:51:09.217Z,3.17
2022-09-28T21:53:38.388Z,3.03
2022-09-28T21:56:08.189Z,3.20
2022-09-28T21:58:36.032Z,3.70
2022-09-28T22:01:07.851Z,3.20
2022-09-28T22:03:36.539Z,3.47
2022-09-28T22:06:04.723Z,3.10
2022-09-28T22:08:31.733Z,2.90
2022-09-28T22:11:13.252Z,3.25
2022-09-28T22:13:45.715Z,3.15
2022-09-28T22:16:14.493Z,4.32
2022-09-28T22:18:41.651Z,2.90
2022-09-28T22:21:12.584Z,3.13
2022-09-28T22:23:40.051Z,3.45
2022-09-28T22:26:11.576Z,3.08
2022-09-28T22:28:40.108Z,3.20
2022-09-28T22:31:07.035Z,3.22
2022-09-28T22:33:34.155Z,2.97
2022-09-28T22:36:01.029Z,3.55
2022-09-28T22:38:31.131Z,3.60
2022-09-28T22:40:58.413Z,3.95
2022-09-28T22:43:26.729Z,4.70
2022-09-28T22:46:04.040Z,4.65
2022-09-28T22:48:31.153Z,4.00
2022-09-28T22:50:58.049Z,4.25
2022-09-28T22:53:25.159Z,4.45
2022-09-28T22:55:52.123Z,3.58
2022-09-28T22:58:18.829Z,3.45
2022-09-28T23:00:45.663Z,3.33
2022-09-28T23:03:12.716Z,3.95
2022-09-28T23:05:39.383Z,3.55
2022-09-28T23:08:06.047Z,3.40
2022-09-28T23:10:32.972Z,3.00
2022-09-28T23:12:59.679Z,3.58
2022-09-28T23:15:27.871Z,3.40
2022-09-28T23:17:55.223Z,4.50
2022-09-28T23:20:22.314Z,3.70
2022-09-28T23:22:49.810Z,3.70
2022-09-28T23:25:17.924Z,5.63
2022-09-28T23:27:48.829Z,5.90
2022-09-28T23:30:17.011Z,5.43
2022-09-28T23:32:44.331Z,4.65
2022-09-28T23:35:11.183Z,4.50
2022-09-28T23:37:38.259Z,4.18
2022-09-28T23:40:06.338Z,4.55
2022-09-28T23:42:34.826Z,4.47
2022-09-28T23:45:01.441Z,3.85
2022-09-28T23:47:28.317Z,4.78
2022-09-28T23:49:54.867Z,4.78
2022-09-28T23:52:21.626Z,5.20
2022-09-28T23:54:48.197Z,4.80
2022-09-28T23:57:14.803Z,4.00
2022-09-28T23:59:41.470Z,3.78
